Time;durP1;ratioP1;P1;durP2;ratioP2;P2;SDS_P1;SDS_P2;PMS_P1;PMS_P2;Temp;Humidity;BMP_temperature;BMP_pressure;BME280_temperature;BME280_humidity;BME280_pressure;Samples;Min_cycle;Max_cycle;Signal;HPM_P1;HPM_P2
2022/12/28 00:01:21;;;;;;;8.07;4.43;;;;;;;5.09;100.00;101618.03;5049870;28;20036;-50
2022/12/28 00:03:47;;;;;;;7.75;4.28;;;;;;;5.08;100.00;101618.94;5050362;28;20033;-51
2022/12/28 00:06:13;;;;;;;9.73;4.18;;;;;;;5.10;100.00;101623.25;5049748;28;20032;-51
2022/12/28 00:08:39;;;;;;;10.80;4.72;;;;;;;5.10;100.00;101603.97;5050495;28;20029;-50
2022/12/28 00:11:13;;;;;;;14.35;4.93;;;;;;;5.13;100.00;101603.81;5050548;28;20082;-54
2022/12/28 00:13:38;;;;;;;12.45;4.57;;;;;;;5.13;100.00;101601.19;5050385;28;20053;-53
2022/12/28 00:16:17;;;;;;;11.80;4.57;;;;;;;5.14;100.00;101592.38;5054206;28;20064;-54
2022/12/28 00:18:43;;;;;;;9.93;4.35;;;;;;;5.15;100.00;101575.66;5050547;28;20037;-51
2022/12/28 00:21:08;;;;;;;8.63;4.80;;;;;;;5.16;100.00;101562.44;5050477;28;20036;-54
2022/12/28 00:23:33;;;;;;;7.72;4.72;;;;;;;5.16;100.00;101551.91;5048920;28;20486;-54
2022/12/28 00:26:07;;;;;;;11.23;4.53;;;;;;;5.17;100.00;101536.94;5050576;28;20135;-54
2022/12/28 00:28:33;;;;;;;9.88;4.43;;;;;;;5.18;100.00;101528.97;5049994;28;20017;-53
2022/12/28 00:30:58;;;;;;;11.90;4.45;;;;;;;5.18;100.00;101522.88;5052694;28;20055;-54
2022/12/28 00:33:23;;;;;;;7.13;4.82;;;;;;;5.20;100.00;101542.09;5054315;28;20070;-54
2022/12/28 00:35:53;;;;;;;11.65;5.13;;;;;;;5.19;100.00;101524.56;5053357;28;20020;-54
2022/12/28 00:38:18;;;;;;;9.23;4.50;;;;;;;5.22;100.00;101528.84;5047317;28;20037;-54
2022/12/28 00:40:43;;;;;;;7.13;4.30;;;;;;;5.24;100.00;101527.00;5047118;28;20095;-50
2022/12/28 00:43:09;;;;;;;5.75;4.20;;;;;;;5.24;100.00;101524.38;5053458;28;20064;-53
2022/12/28 00:45:34;;;;;;;7.32;4.32;;;;;;;5.26;100.00;101530.41;5053958;28;20037;-51
2022/12/28 00:47:59;;;;;;;9.38;4.53;;;;;;;5.27;100.00;101522.44;5053530;28;20541;-54
2022/12/28 00:50:25;;;;;;;7.75;4.30;;;;;;;5.29;100.00;101511.84;5054622;28;20112;-51
2022/12/28 00:52:50;;;;;;;12.07;4.63;;;;;;;5.30;100.00;101503.88;5053521;28;20082;-52
2022/12/28 00:55:15;;;;;;;13.35;4.80;;;;;;;5.33;100.00;101497.66;5053238;28;20067;-52
2022/12/28 00:57:40;;;;;;;9.00;4.57;;;;;;;5.34;100.00;101488.78;5053756;28;20471;-50
2022/12/28 01:00:06;;;;;;;11.55;4.40;;;;;;;5.34;100.00;101489.63;5053398;28;20486;-53
2022/12/28 01:02:31;;;;;;;8.00;4.40;;;;;;;5.37;100.00;101491.28;5052940;28;20033;-54
2022/12/28 01:04:57;;;;;;;9.13;4.40;;;;;;;5.38;100.00;101493.88;5052715;28;20047;-54
2022/12/28 01:07:22;;;;;;;8.32;4.68;;;;;;;5.42;100.00;101483.19;5056762;28;20478;-54
2022/12/28 01:09:47;;;;;;;6.65;4.35;;;;;;;5.41;100.00;101477.06;5055080;28;20166;-54
2022/12/28 01:12:12;;;;;;;6.65;4.13;;;;;;;5.46;100.00;101474.22;5053015;28;20025;-53
2022/12/28 01:14:38;;;;;;;10.48;4.32;;;;;;;5.43;100.00;101477.88;5058995;28;20025;-50
2022/12/28 01:17:03;;;;;;;8.98;4.30;;;;;;;5.47;100.00;101475.94;5052928;28;20056;-51
2022/12/28 01:19:28;;;;;;;9.13;4.15;;;;;;;5.47;100.00;101460.13;5053192;28;20021;-54
2022/12/28 01:21:53;;;;;;;7.97;3.83;;;;;;;5.50;100.00;101455.56;5052430;28;20444;-53
2022/12/28 01:24:19;;;;;;;11.02;4.15;;;;;;;5.53;100.00;101458.06;5053057;28;20032;-54
2022/12/28 01:26:44;;;;;;;7.80;4.78;;;;;;;5.54;100.00;101448.38;5052870;28;20043;-53
2022/12/28 01:29:09;;;;;;;7.47;4.05;;;;;;;5.54;100.00;101448.38;5052434;28;20029;-54
2022/12/28 01:31:35;;;;;;;8.07;4.60;;;;;;;5.54;100.00;101445.75;5052944;28;20087;-53
2022/12/28 01:34:01;;;;;;;8.50;4.32;;;;;;;5.56;100.00;101433.34;5052151;28;20101;-54
2022/12/28 01:36:30;;;;;;;8.20;4.03;;;;;;;5.56;100.00;101435.97;5052356;28;20028;-53
2022/12/28 01:38:58;;;;;;;6.45;3.83;;;;;;;5.60;100.00;101445.47;5044564;28;20036;-54
2022/12/28 01:41:25;;;;;;;5.90;3.88;;;;;;;5.61;100.00;101436.63;5051108;28;20029;-54
2022/12/28 01:43:51;;;;;;;6.88;4.15;;;;;;;5.64;100.00;101431.22;5051554;28;20108;-53
2022/12/28 01:46:20;;;;;;;8.53;4.40;;;;;;;5.67;100.00;101435.50;5052418;28;20100;-54
2022/12/28 01:49:05;;;;;;;9.40;4.78;;;;;;;5.67;100.00;101420.53;5045322;28;20362;-54
2022/12/28 01:51:42;;;;;;;8.75;3.70;;;;;;;5.70;100.00;101417.75;5048625;28;20028;-54
2022/12/28 01:54:08;;;;;;;7.75;4.13;;;;;;;5.73;100.00;101407.06;5052319;28;20140;-54
2022/12/28 01:56:33;;;;;;;8.30;4.07;;;;;;;5.75;100.00;101407.00;5052655;28;20440;-54
2022/12/28 01:58:59;;;;;;;8.30;4.32;;;;;;;5.78;100.00;101404.22;5051379;28;20148;-54
2022/12/28 02:01:25;;;;;;;7.82;3.67;;;;;;;5.81;100.00;101390.03;5052664;28;20479;-52
2022/12/28 02:03:50;;;;;;;9.88;4.43;;;;;;;5.82;100.00;101387.31;5052327;28;20049;-54
2022/12/28 02:06:16;;;;;;;7.82;3.97;;;;;;;5.84;100.00;101390.72;5051929;28;20048;-52
2022/12/28 02:09:03;;;;;;;6.70;4.13;;;;;;;5.87;100.00;101382.69;5042881;28;20386;-51
2022/12/28 02:11:29;;;;;;;7.32;3.70;;;;;;;5.88;100.00;101365.94;5033448;28;20025;-53
2022/12/28 02:13:55;;;;;;;10.95;3.90;;;;;;;5.91;100.00;101370.19;5037929;28;20018;-51
2022/12/28 02:16:21;;;;;;;5.65;3.95;;;;;;;5.91;100.00;101352.63;5052102;28;20045;-51
2022/12/28 02:18:47;;;;;;;7.90;4.20;;;;;;;5.96;100.00;101343.63;5039954;28;20386;-52
2022/12/28 02:21:28;;;;;;;6.35;4.20;;;;;;;5.98;100.00;101350.56;5053305;28;20032;-53
2022/12/28 02:24:15;;;;;;;6.85;4.13;;;;;;;6.00;100.00;101346.06;5053210;28;20040;-52
2022/12/28 02:26:50;;;;;;;8.23;4.10;;;;;;;6.01;100.00;101339.00;5052394;28;20039;-51
2022/12/28 02:29:33;;;;;;;6.97;3.83;;;;;;;6.01;100.00;101329.31;5052523;28;20039;-53
2022/12/28 02:32:03;;;;;;;6.22;4.30;;;;;;;5.98;100.00;101325.97;5051111;28;20068;-52
2022/12/28 02:35:04;;;;;;;6.43;3.92;;;;;;;5.97;100.00;101308.47;5043869;28;20390;-52
2022/12/28 02:37:35;;;;;;;8.35;4.13;;;;;;;6.01;100.00;101307.34;5053063;28;20025;-52
2022/12/28 02:40:07;;;;;;;7.68;4.10;;;;;;;6.03;100.00;101309.00;5052227;28;20036;-54
2022/12/28 02:42:34;;;;;;;8.75;4.40;;;;;;;6.02;100.00;101312.56;5051278;28;20020;-54
2022/12/28 02:50:50;;;;;;;8.35;4.00;;;;;;;6.00;100.00;101303.88;5053121;28;20059;-54
2022/12/28 02:53:55;;;;;;;8.95;4.28;;;;;;;5.96;100.00;101297.03;5051695;28;20025;-53
2022/12/28 02:56:54;;;;;;;7.32;4.75;;;;;;;5.96;100.00;101296.16;5045724;28;20035;-51
2022/12/28 02:59:52;;;;;;;5.95;4.65;;;;;;;5.94;100.00;101288.31;5044418;28;20040;-54
2022/12/28 03:02:26;;;;;;;7.63;4.70;;;;;;;5.93;100.00;101276.09;5049140;28;20379;-51
2022/12/28 03:08:13;;;;;;;7.22;4.65;;;;;;;5.94;100.00;101275.13;5052338;28;20475;-53
2022/12/28 03:08:18;;;;;;;8.85;4.93;;;;;;;5.93;100.00;101276.94;5051699;28;20048;-50
2022/12/28 03:10:53;;;;;;;8.20;4.93;;;;;;;5.92;100.00;101269.94;5051633;28;20017;-51
2022/12/28 03:13:46;;;;;;;9.18;4.93;;;;;;;5.90;100.00;101274.44;5051326;28;20098;-53
2022/12/28 03:16:16;;;;;;;9.40;4.60;;;;;;;5.94;100.00;101277.78;5052520;28;20098;-54
2022/12/28 03:32:41;;;;;;;8.43;5.10;;;;;;;5.99;100.00;101254.69;5051247;28;20051;-53
2022/12/28 03:35:07;;;;;;;7.47;5.47;;;;;;;6.00;100.00;101258.22;5052017;28;20104;-53
2022/12/28 03:37:40;;;;;;;7.47;5.40;;;;;;;6.02;100.00;101254.53;5052134;28;20029;-52
2022/12/28 03:40:18;;;;;;;8.63;4.97;;;;;;;6.03;100.00;101250.13;5051501;28;20043;-53
2022/12/28 03:45:38;;;;;;;6.93;4.95;;;;;;;6.05;100.00;101254.41;5047858;28;20056;-52
2022/12/28 03:48:04;;;;;;;8.77;5.57;;;;;;;6.08;100.00;101241.06;5041563;28;20031;-55
2022/12/28 03:50:33;;;;;;;8.65;5.95;;;;;;;6.10;100.00;101235.72;5051353;28;20037;-51
2022/12/28 03:52:59;;;;;;;7.70;5.45;;;;;;;6.11;100.00;101233.00;5057205;28;20033;-50
2022/12/28 03:55:24;;;;;;;10.45;5.88;;;;;;;6.14;100.00;101233.75;5050897;28;20036;-52
2022/12/28 03:57:49;;;;;;;9.90;5.75;;;;;;;6.18;100.00;101230.00;5044346;28;20112;-51
2022/12/28 04:00:15;;;;;;;7.95;5.82;;;;;;;6.19;100.00;101226.47;5051295;28;20040;-53
2022/12/28 04:02:40;;;;;;;9.80;5.75;;;;;;;6.22;100.00;101210.47;5051713;28;20500;-50
2022/12/28 04:05:06;;;;;;;9.55;5.80;;;;;;;6.24;100.00;101225.28;5052519;28;20083;-51
2022/12/28 04:07:31;;;;;;;5.78;4.63;;;;;;;6.30;100.00;101218.84;5055802;28;20382;-51
2022/12/28 04:09:56;;;;;;;10.43;5.63;;;;;;;6.32;100.00;101218.75;5055527;28;20029;-53
2022/12/28 04:12:22;;;;;;;11.20;5.40;;;;;;;6.34;100.00;101214.25;5050379;28;20024;-54
2022/12/28 04:14:47;;;;;;;9.90;5.32;;;;;;;6.36;100.00;101215.00;5055864;28;20033;-53
2022/12/28 04:17:12;;;;;;;11.45;5.30;;;;;;;6.37;100.00;101209.66;5054576;28;20442;-52
2022/12/28 04:19:37;;;;;;;10.25;5.55;;;;;;;6.40;100.00;101219.22;5055534;28;20019;-52
2022/12/28 04:22:03;;;;;;;8.68;5.00;;;;;;;6.42;100.00;101218.19;5055494;28;20036;-54
2022/12/28 04:24:28;;;;;;;9.82;5.28;;;;;;;6.46;100.00;101217.09;5054659;28;20029;-51
2022/12/28 04:26:53;;;;;;;10.50;5.25;;;;;;;6.50;100.00;101211.66;5055608;28;20133;-54
2022/12/28 04:29:18;;;;;;;8.57;4.97;;;;;;;6.52;100.00;101210.63;5055261;28;20203;-53
2022/12/28 04:31:44;;;;;;;11.38;5.13;;;;;;;6.56;100.00;101222.75;5055283;28;20032;-51
2022/12/28 04:34:10;;;;;;;8.68;5.00;;;;;;;6.58;100.00;101215.59;5054191;28;20033;-54
2022/12/28 04:36:35;;;;;;;7.88;4.88;;;;;;;6.59;100.00;101213.78;5054918;28;20074;-53
2022/12/28 04:39:00;;;;;;;12.07;4.57;;;;;;;6.61;100.00;101207.50;5055003;28;20032;-52
2022/12/28 04:41:26;;;;;;;8.43;4.85;;;;;;;6.63;100.00;101212.69;5055029;28;20035;-52
2022/12/28 04:43:53;;;;;;;7.00;4.65;;;;;;;6.63;100.00;101210.91;5054644;28;20055;-54
2022/12/28 04:46:18;;;;;;;8.23;5.07;;;;;;;6.64;100.00;101215.25;5054910;28;20043;-53
2022/12/28 04:48:44;;;;;;;10.45;5.25;;;;;;;6.65;100.00;101213.47;5054763;28;20479;-50
2022/12/28 04:51:16;;;;;;;9.68;5.28;;;;;;;6.67;100.00;101208.94;5054379;28;20047;-52
2022/12/28 04:53:41;;;;;;;8.68;4.80;;;;;;;6.66;100.00;101209.88;5054785;28;20036;-55
2022/12/28 04:56:08;;;;;;;6.10;5.15;;;;;;;6.65;100.00;101206.38;5052320;28;20025;-53
2022/12/28 04:58:34;;;;;;;8.00;5.30;;;;;;;6.66;100.00;101208.09;5054970;28;20029;-50
2022/12/28 05:01:11;;;;;;;8.73;5.38;;;;;;;6.68;100.00;101205.38;5052033;28;20025;-52
2022/12/28 05:03:38;;;;;;;8.48;4.65;;;;;;;6.69;100.00;101201.78;5050381;28;20486;-50
2022/12/28 05:06:06;;;;;;;7.10;4.90;;;;;;;6.71;100.00;101207.00;5054771;28;20060;-49
2022/12/28 05:08:32;;;;;;;8.80;4.70;;;;;;;6.74;100.00;101193.63;5054693;28;20029;-51
2022/12/28 05:11:01;;;;;;;7.82;5.28;;;;;;;6.74;100.00;101197.09;5053972;28;20405;-50
2022/12/28 05:13:27;;;;;;;;;;;;;;;6.77;100.00;101204.88;5054924;28;20076;-52
2022/12/28 05:15:52;;;;;;;7.72;4.80;;;;;;;6.77;100.00;101193.47;5053401;28;19955;-51
2022/12/28 05:18:18;;;;;;;9.63;5.35;;;;;;;6.77;100.00;101196.09;5040633;28;20057;-51
2022/12/28 05:20:43;;;;;;;7.10;4.93;;;;;;;6.77;100.00;101196.94;5053711;28;20120;-50
2022/12/28 05:23:08;;;;;;;9.98;5.32;;;;;;;6.77;100.00;101196.09;5056056;28;20036;-53
2022/12/28 05:25:33;;;;;;;8.70;5.35;;;;;;;6.78;100.00;101201.31;5060193;28;20036;-52
2022/12/28 05:27:59;;;;;;;9.18;5.72;;;;;;;6.77;100.00;101185.53;5057931;28;20036;-50
2022/12/28 05:30:24;;;;;;;7.93;5.20;;;;;;;6.77;100.00;101196.94;5052094;28;20025;-51
2022/12/28 05:32:49;;;;;;;9.00;4.97;;;;;;;6.77;100.00;101183.75;5054148;28;20025;-50
2022/12/28 05:35:15;;;;;;;9.18;4.80;;;;;;;6.79;100.00;101181.88;5052997;28;20065;-51
2022/12/28 05:37:40;;;;;;;8.63;5.20;;;;;;;6.79;100.00;101186.31;5054085;28;20028;-50
2022/12/28 05:40:06;;;;;;;9.05;5.53;;;;;;;6.81;100.00;101187.94;5053453;28;20061;-50
2022/12/28 05:42:31;;;;;;;9.57;5.28;;;;;;;6.81;100.00;101190.56;5053932;28;20033;-51
2022/12/28 05:44:56;;;;;;;6.15;4.68;;;;;;;6.84;100.00;101194.81;5053764;28;20475;-52
2022/12/28 05:47:21;;;;;;;7.95;5.00;;;;;;;6.87;100.00;101184.09;5053380;28;20025;-52
2022/12/28 05:49:47;;;;;;;8.77;5.10;;;;;;;6.88;100.00;101188.44;5054047;28;20025;-54
2022/12/28 05:52:12;;;;;;;8.48;4.68;;;;;;;6.89;100.00;101184.84;5053729;28;20471;-54
2022/12/28 05:54:37;;;;;;;9.45;4.55;;;;;;;6.90;100.00;101188.38;5053068;28;20025;-50
2022/12/28 05:57:03;;;;;;;8.20;4.93;;;;;;;6.90;100.00;101183.94;5053797;28;20451;-53
2022/12/28 05:59:28;;;;;;;6.50;4.40;;;;;;;6.91;100.00;101175.06;5051975;28;20024;-51
2022/12/28 06:01:53;;;;;;;6.65;4.93;;;;;;;6.93;100.00;101170.56;5049532;28;20116;-51
2022/12/28 06:04:20;;;;;;;5.72;4.35;;;;;;;6.95;100.00;101175.75;5053440;28;20031;-51
2022/12/28 06:06:46;;;;;;;6.15;4.43;;;;;;;6.94;100.00;101174.88;5053430;28;20036;-50
2022/12/28 06:09:12;;;;;;;6.45;4.47;;;;;;;6.94;100.00;101164.31;5053390;28;20056;-51
2022/12/28 06:11:38;;;;;;;8.20;4.70;;;;;;;6.97;100.00;101160.66;5053338;28;20063;-51
2022/12/28 06:14:04;;;;;;;8.57;4.10;;;;;;;6.97;100.00;101166.78;5053474;28;20047;-52
2022/12/28 06:16:32;;;;;;;7.03;4.20;;;;;;;6.97;100.00;101156.22;5051981;28;20419;-50
2022/12/28 06:18:58;;;;;;;5.50;3.83;;;;;;;6.99;100.00;101154.34;5041193;28;20052;-50
2022/12/28 06:21:26;;;;;;;7.07;3.90;;;;;;;7.01;100.00;101151.63;5053135;28;20515;-50
2022/12/28 06:23:53;;;;;;;4.70;4.15;;;;;;;7.02;100.00;101151.53;5052274;28;20040;-51
2022/12/28 06:26:20;;;;;;;7.25;4.50;;;;;;;7.02;100.00;101140.97;5053060;28;20051;-51
2022/12/28 06:28:46;;;;;;;6.97;4.40;;;;;;;7.01;100.00;101144.56;5047713;28;20036;-51
2022/12/28 06:31:21;;;;;;;8.35;4.93;;;;;;;7.03;100.00;101137.41;5047022;28;20040;-50
2022/12/28 06:33:48;;;;;;;9.18;4.30;;;;;;;7.03;100.00;101142.69;5053181;28;20098;-51
2022/12/28 06:36:16;;;;;;;5.65;4.40;;;;;;;7.04;100.00;101135.59;5052824;28;20028;-50
2022/12/28 06:38:42;;;;;;;7.95;4.10;;;;;;;7.06;100.00;101122.31;5052936;28;20098;-51
2022/12/28 06:41:10;;;;;;;7.38;4.32;;;;;;;7.06;100.00;101117.03;5052104;28;20479;-50
2022/12/28 06:43:36;;;;;;;7.65;4.55;;;;;;;7.08;100.00;101128.34;5053056;28;20036;-55
2022/12/28 06:46:02;;;;;;;6.63;4.28;;;;;;;7.07;100.00;101121.38;5052064;28;20033;-50
2022/12/28 06:48:29;;;;;;;7.13;4.40;;;;;;;7.08;100.00;101120.44;5050533;28;20037;-51
2022/12/28 06:50:58;;;;;;;6.00;3.67;;;;;;;7.11;100.00;101118.47;5044164;28;20387;-52
2022/12/28 06:53:26;;;;;;;5.78;4.40;;;;;;;7.10;100.00;101110.66;5052672;28;20041;-50
2022/12/28 06:55:55;;;;;;;5.45;4.43;;;;;;;7.10;100.00;101115.94;5052403;28;20037;-50
2022/12/28 06:58:22;;;;;;;5.28;4.20;;;;;;;7.12;100.00;101108.75;5044588;28;20379;-51
2022/12/28 07:00:48;;;;;;;7.40;4.57;;;;;;;7.13;100.00;101118.41;5036567;28;20248;-48
2022/12/28 07:03:13;;;;;;;6.95;4.60;;;;;;;7.15;100.00;101122.63;5042273;28;20146;-51
2022/12/28 07:05:38;;;;;;;6.78;4.65;;;;;;;7.14;100.00;101115.63;5038574;28;20017;-51
2022/12/28 07:08:04;;;;;;;9.75;4.18;;;;;;;7.16;100.00;101112.91;5043891;28;20033;-50
2022/12/28 07:10:29;;;;;;;5.32;4.55;;;;;;;7.15;100.00;101121.78;5032455;28;20443;-54
2022/12/28 07:12:54;;;;;;;6.55;4.53;;;;;;;7.16;100.00;101111.16;5049655;28;20513;-51
2022/12/28 07:15:19;;;;;;;7.13;4.45;;;;;;;7.16;100.00;101107.63;5037437;28;20041;-50
2022/12/28 07:17:45;;;;;;;7.40;4.63;;;;;;;7.17;100.00;101107.53;5041336;28;20384;-51
2022/12/28 07:20:10;;;;;;;5.13;4.18;;;;;;;7.16;100.00;101105.88;5044296;28;20032;-51
2022/12/28 07:22:36;;;;;;;9.80;4.53;;;;;;;7.18;100.00;101103.13;5044190;28;20075;-54
2022/12/28 07:25:01;;;;;;;7.53;4.30;;;;;;;7.18;100.00;101108.41;5046982;28;20446;-50
2022/12/28 07:27:26;;;;;;;6.22;4.07;;;;;;;7.19;100.00;101100.41;5043833;28;20494;-53
2022/12/28 07:29:51;;;;;;;6.03;4.05;;;;;;;7.19;100.00;101103.03;5047148;28;20042;-50
2022/12/28 07:32:17;;;;;;;7.03;3.97;;;;;;;7.21;100.00;101106.44;5044674;28;20025;-52
2022/12/28 07:34:42;;;;;;;5.80;4.18;;;;;;;7.22;100.00;101102.84;5045276;28;20252;-50
2022/12/28 07:37:07;;;;;;;6.57;3.60;;;;;;;7.21;100.00;101103.78;5047126;28;20383;-50
2022/12/28 07:39:34;;;;;;;7.82;4.28;;;;;;;7.23;100.00;101107.19;5044973;28;20047;-50
2022/12/28 07:42:05;;;;;;;5.63;3.65;;;;;;;7.25;100.00;101112.41;5046216;28;20110;-53
2022/12/28 07:44:30;;;;;;;5.25;3.90;;;;;;;7.26;100.00;101100.91;5043506;28;20041;-50
2022/12/28 07:46:55;;;;;;;4.78;3.70;;;;;;;7.26;100.00;101103.53;5045924;28;20383;-50
2022/12/28 07:49:21;;;;;;;8.50;3.80;;;;;;;7.30;100.00;101102.41;5047759;28;20021;-53
2022/12/28 07:51:46;;;;;;;9.52;4.13;;;;;;;7.28;100.00;101108.69;5048534;28;20029;-49
2022/12/28 07:54:11;;;;;;;4.47;3.70;;;;;;;7.29;100.00;101118.34;5044161;28;20028;-50
2022/12/28 07:56:37;;;;;;;4.88;3.72;;;;;;;7.29;100.00;101110.41;5043015;28;20029;-52
2022/12/28 07:59:04;;;;;;;4.88;4.30;;;;;;;7.29;100.00;101119.19;5047091;28;20087;-50
2022/12/28 08:01:31;;;;;;;9.18;4.43;;;;;;;7.32;100.00;101115.53;5042765;28;20045;-50
2022/12/28 08:04:02;;;;;;;7.13;4.28;;;;;;;7.31;100.00;101117.31;5046023;28;20120;-50
2022/12/28 08:06:29;;;;;;;5.90;4.00;;;;;;;7.33;100.00;101109.31;5048851;28;20041;-52
2022/12/28 08:08:58;;;;;;;9.57;3.92;;;;;;;7.33;100.00;101112.78;5047563;28;20033;-50
2022/12/28 08:11:25;;;;;;;7.47;4.10;;;;;;;7.33;100.00;101115.44;5046333;28;20047;-50
2022/12/28 08:13:53;;;;;;;8.02;4.10;;;;;;;7.34;100.00;101111.84;5042240;28;20040;-50
2022/12/28 08:16:20;;;;;;;6.97;4.07;;;;;;;7.37;100.00;101111.66;5040973;28;20056;-53
2022/12/28 08:18:46;;;;;;;8.15;4.38;;;;;;;7.39;100.00;101107.16;5044069;28;20026;-50
2022/12/28 08:21:23;;;;;;;7.18;4.10;;;;;;;7.39;100.00;101109.81;5035208;28;20029;-50
2022/12/28 08:23:48;;;;;;;8.02;3.90;;;;;;;7.40;100.00;101103.56;5039662;28;20483;-50
2022/12/28 08:26:16;;;;;;;6.75;4.20;;;;;;;7.41;100.00;101099.09;5034350;28;20060;-50
2022/12/28 08:28:43;;;;;;;12.45;4.93;;;;;;;7.44;100.00;101111.31;5042001;28;20447;-53
2022/12/28 08:31:20;;;;;;;6.75;4.22;;;;;;;7.45;100.00;101105.09;5043944;28;20056;-50
2022/12/28 08:33:46;;;;;;;6.95;4.13;;;;;;;7.45;100.00;101105.09;5044788;28;20017;-50
2022/12/28 08:36:12;;;;;;;9.07;4.40;;;;;;;7.46;100.00;101112.06;5034366;28;20044;-51
2022/12/28 08:38:39;;;;;;;10.07;4.20;;;;;;;7.46;100.00;101104.13;5044964;28;20360;-51
2022/12/28 08:41:06;;;;;;;11.98;4.32;;;;;;;7.48;100.00;101102.28;5046224;28;20025;-51
2022/12/28 08:43:32;;;;;;;9.35;4.43;;;;;;;7.47;100.00;101101.41;5019903;28;20499;-53
2022/12/28 08:46:05;;;;;;;6.47;4.20;;;;;;;7.48;100.00;101100.47;5008573;28;20095;-52
2022/12/28 08:48:32;;;;;;;10.13;4.10;;;;;;;7.49;100.00;101096.03;5042728;28;20036;-50
2022/12/28 08:51:08;;;;;;;10.13;4.25;;;;;;;7.55;100.00;101103.59;5041115;28;20029;-50
2022/12/28 08:53:34;;;;;;;6.93;3.95;;;;;;;7.52;100.00;101107.25;5044212;28;20394;-50
2022/12/28 08:56:16;;;;;;;6.72;4.13;;;;;;;7.52;100.00;101104.63;5048741;28;20033;-49
2022/12/28 08:58:43;;;;;;;9.13;4.22;;;;;;;7.51;100.00;101096.78;5054083;28;20025;-50
2022/12/28 09:01:11;;;;;;;6.88;4.20;;;;;;;7.51;100.00;101102.94;5053972;28;20027;-52
2022/12/28 09:03:39;;;;;;;8.75;4.20;;;;;;;7.50;100.00;101100.38;5053334;28;20035;-50
2022/12/28 09:06:06;;;;;;;7.68;4.30;;;;;;;7.51;100.00;101100.28;5050912;28;20021;-50
2022/12/28 09:08:32;;;;;;;9.00;3.85;;;;;;;7.50;100.00;101106.50;5041773;28;20017;-50
2022/12/28 09:11:02;;;;;;;11.73;4.30;;;;;;;7.51;100.00;101102.06;5053003;28;20029;-50
2022/12/28 09:13:27;;;;;;;10.80;3.90;;;;;;;7.52;100.00;101107.25;5052489;28;20475;-49
2022/12/28 09:16:01;;;;;;;11.45;4.55;;;;;;;7.52;100.00;101107.25;5042892;28;20062;-50
2022/12/28 09:18:27;;;;;;;12.57;4.35;;;;;;;7.53;100.00;101102.84;5038732;28;20183;-50
2022/12/28 09:20:53;;;;;;;8.32;4.28;;;;;;;7.52;100.00;101104.63;5038799;28;20984;-51
2022/12/28 09:23:18;;;;;;;8.07;4.13;;;;;;;7.54;100.00;101102.75;5049291;28;20394;-50
2022/12/28 09:25:43;;;;;;;11.45;3.95;;;;;;;7.59;100.00;101110.38;5046058;28;20033;-50
2022/12/28 09:28:09;;;;;;;10.52;3.80;;;;;;;7.57;100.00;101107.84;5046243;28;20479;-50
2022/12/28 09:30:34;;;;;;;7.75;3.67;;;;;;;7.58;100.00;101106.06;5040245;28;20491;-50
2022/12/28 09:35:43;;;;;;;7.10;3.58;;;;;;;7.59;100.00;101100.69;5043484;28;20036;-53
2022/12/28 09:38:09;;;;;;;7.88;3.80;;;;;;;7.62;100.00;101096.16;5042196;28;20021;-50
2022/12/28 09:40:36;;;;;;;10.18;3.75;;;;;;;7.62;100.00;101104.91;5039099;28;20013;-49
2022/12/28 09:43:01;;;;;;;7.07;3.50;;;;;;;7.63;100.00;101098.69;5043807;28;20044;-49
2022/12/28 09:45:27;;;;;;;6.88;3.30;;;;;;;7.66;100.00;101100.28;5050826;28;20394;-49
2022/12/28 09:48:00;;;;;;;6.05;3.10;;;;;;;7.65;100.00;101102.09;5040470;28;20162;-49
2022/12/28 09:50:30;;;;;;;6.35;3.20;;;;;;;7.68;100.00;101104.56;5046645;28;20402;-50
2022/12/28 09:53:04;;;;;;;4.80;3.78;;;;;;;7.71;100.00;101098.22;5044856;28;20111;-49
2022/12/28 09:55:31;;;;;;;5.82;3.33;;;;;;;7.70;100.00;101096.53;5047709;28;20028;-49
2022/12/28 09:57:58;;;;;;;4.47;2.97;;;;;;;7.74;100.00;101096.25;5047814;28;20029;-51
2022/12/28 10:00:44;;;;;;;3.65;2.58;;;;;;;7.75;100.00;101099.75;5050112;28;21047;-49
2022/12/28 10:03:17;;;;;;;3.20;2.70;;;;;;;7.74;100.00;101096.25;5045814;28;20029;-50
2022/12/28 10:05:42;;;;;;;3.47;2.90;;;;;;;7.76;100.00;101096.16;5041564;28;20029;-50
2022/12/28 10:08:12;;;;;;;3.20;2.40;;;;;;;7.77;100.00;101097.84;5043744;28;20028;-52
2022/12/28 10:10:39;;;;;;;2.95;2.53;;;;;;;7.76;100.00;101090.84;5038978;28;20063;-50
2022/12/28 10:13:18;;;;;;;3.25;2.65;;;;;;;7.77;100.00;101092.56;5046599;28;20036;-51
2022/12/28 10:15:43;;;;;;;;;;;;;;;7.84;100.00;101087.75;5037111;28;20127;-52
2022/12/28 10:18:12;;;;;;;3.67;2.50;;;;;;;7.77;100.00;101085.47;5037015;28;20028;-49
2022/12/28 10:20:39;;;;;;;4.85;2.53;;;;;;;7.81;100.00;101085.28;5038988;28;20048;-51
2022/12/28 10:23:05;;;;;;;4.28;2.70;;;;;;;7.79;100.00;101080.09;5041008;28;20065;-54
2022/12/28 10:25:31;;;;;;;4.75;2.80;;;;;;;7.83;100.00;101080.75;5040871;28;20502;-50
2022/12/28 10:27:59;;;;;;;2.58;2.38;;;;;;;7.83;100.00;101071.06;5034844;28;20527;-50
2022/12/28 10:30:25;;;;;;;3.20;2.90;;;;;;;7.82;100.00;101076.44;5041548;28;20021;-51
2022/12/28 10:32:56;;;;;;;3.95;3.30;;;;;;;7.84;100.00;101078.03;5045490;28;20049;-51
2022/12/28 10:35:35;;;;;;;4.68;2.47;;;;;;;7.85;100.00;101081.53;5052596;28;20036;-50
2022/12/28 10:38:04;;;;;;;4.00;3.00;;;;;;;7.84;100.00;101070.09;5051287;28;20037;-53
2022/12/28 10:40:32;;;;;;;3.70;2.90;;;;;;;7.86;100.00;101072.63;5043075;28;20021;-49
2022/12/28 10:42:58;;;;;;;4.53;2.70;;;;;;;7.87;100.00;101074.34;5043902;28;20040;-51
2022/12/28 10:45:34;;;;;;;3.85;3.00;;;;;;;7.89;100.00;101065.41;5049030;28;20035;-52
2022/12/28 10:48:00;;;;;;;3.85;3.13;;;;;;;7.88;100.00;101066.31;5052050;28;20544;-53
2022/12/28 10:50:48;;;;;;;5.32;3.45;;;;;;;7.89;100.00;101060.09;5046252;28;20079;-50
2022/12/28 10:53:18;;;;;;;7.47;3.33;;;;;;;7.89;100.00;101062.75;5044635;28;20102;-51
2022/12/28 10:55:44;;;;;;;7.25;3.42;;;;;;;7.90;100.00;101063.59;5051867;28;20035;-50
2022/12/28 10:58:20;;;;;;;5.22;3.45;;;;;;;7.92;100.00;101056.41;5048487;28;20033;-50
2022/12/28 11:00:58;;;;;;;4.82;3.22;;;;;;;7.91;100.00;101052.91;5042483;28;20049;-51
2022/12/28 11:03:26;;;;;;;6.97;3.20;;;;;;;7.92;100.00;101054.59;5046165;28;20037;-53
2022/12/28 11:06:12;;;;;;;6.28;3.20;;;;;;;7.95;100.00;101058.88;5048068;28;20032;-52
2022/12/28 11:08:39;;;;;;;5.15;2.97;;;;;;;7.93;100.00;101051.03;5040654;28;20049;-49
2022/12/28 11:11:05;;;;;;;5.03;3.30;;;;;;;7.94;100.00;101057.16;5046886;28;20029;-50
2022/12/28 11:13:31;;;;;;;3.90;3.17;;;;;;;7.94;100.00;101044.78;5037776;28;20036;-50
2022/12/28 11:15:57;;;;;;;4.30;2.97;;;;;;;7.95;100.00;101054.41;5047500;28;20520;-49
2022/12/28 11:18:22;;;;;;;6.22;3.15;;;;;;;7.96;100.00;101045.53;5046709;28;20045;-50
2022/12/28 11:20:52;;;;;;;5.60;2.90;;;;;;;7.95;100.00;101041.19;5049922;28;20115;-50
2022/12/28 11:23:23;;;;;;;4.28;3.15;;;;;;;7.95;100.00;101033.25;5052281;28;20120;-49
2022/12/28 11:25:49;;;;;;;5.72;2.97;;;;;;;7.97;100.00;101034.00;5047477;28;20064;-49
2022/12/28 11:28:18;;;;;;;8.48;3.33;;;;;;;8.00;100.00;101029.47;5049218;28;20436;-51
2022/12/28 11:30:45;;;;;;;6.47;3.10;;;;;;;8.01;100.00;101025.88;5043408;28;20017;-49
2022/12/28 11:33:37;;;;;;;6.28;3.40;;;;;;;8.02;100.00;101020.50;5049682;28;20045;-53
2022/12/28 11:36:03;;;;;;;3.40;2.78;;;;;;;8.00;100.00;101009.16;5041286;28;20041;-49
2022/12/28 11:38:39;;;;;;;8.77;3.17;;;;;;;8.03;100.00;101006.34;5035465;28;20120;-51
2022/12/28 11:41:04;;;;;;;4.57;3.13;;;;;;;8.02;100.00;101001.13;5044100;28;20056;-50
2022/12/28 11:43:30;;;;;;;4.78;2.97;;;;;;;8.05;100.00;101006.22;5049272;28;20075;-49
2022/12/28 11:46:00;;;;;;;6.93;2.97;;;;;;;8.05;100.00;100996.50;5046086;28;20036;-49
2022/12/28 11:48:41;;;;;;;8.50;3.25;;;;;;;8.06;100.00;100992.03;5044272;28;20123;-53
2022/12/28 11:51:20;;;;;;;4.70;2.92;;;;;;;8.07;100.00;101004.34;5043388;28;20033;-52
2022/12/28 11:53:45;;;;;;;5.75;2.88;;;;;;;8.05;100.00;100999.13;5047465;28;20122;-50
2022/12/28 11:56:15;;;;;;;5.63;2.70;;;;;;;8.05;100.00;100977.97;5046211;28;20478;-50